sensor_id;sensor_type;location;lat;lon;timestamp;P1;durP1;ratioP1;P2;durP2;ratioP2
49440;SDS011;35317;51.978;6.296;2024-02-21T00:00:41;32.72;;;10.70;;
49440;SDS011;35317;51.978;6.296;2024-02-21T00:05:42;22.30;;;10.27;;
49440;SDS011;35317;51.978;6.296;2024-02-21T00:10:42;30.70;;;9.75;;
49440;SDS011;35317;51.978;6.296;2024-02-21T00:15:43;30.52;;;11.23;;
49440;SDS011;35317;51.978;6.296;2024-02-21T00:20:44;28.90;;;9.77;;
49440;SDS011;35317;51.978;6.296;2024-02-21T00:25:45;22.70;;;9.50;;
49440;SDS011;35317;51.978;6.296;2024-02-21T00:30:46;27.27;;;10.57;;
49440;SDS011;35317;51.978;6.296;2024-02-21T00:35:47;32.15;;;10.50;;
49440;SDS011;35317;51.978;6.296;2024-02-21T00:40:48;25.35;;;10.50;;
49440;SDS011;35317;51.978;6.296;2024-02-21T00:45:49;27.65;;;9.73;;
49440;SDS011;35317;51.978;6.296;2024-02-21T00:50:50;26.23;;;9.85;;
49440;SDS011;35317;51.978;6.296;2024-02-21T00:55:52;27.13;;;10.30;;
49440;SDS011;35317;51.978;6.296;2024-02-21T01:00:52;30.23;;;10.18;;
49440;SDS011;35317;51.978;6.296;2024-02-21T01:05:53;26.25;;;11.15;;
49440;SDS011;35317;51.978;6.296;2024-02-21T01:10:54;22.58;;;10.30;;
49440;SDS011;35317;51.978;6.296;2024-02-21T01:15:55;25.58;;;10.80;;
49440;SDS011;35317;51.978;6.296;2024-02-21T01:20:55;27.80;;;10.23;;
49440;SDS011;35317;51.978;6.296;2024-02-21T01:25:56;31.95;;;11.02;;
49440;SDS011;35317;51.978;6.296;2024-02-21T01:30:57;23.10;;;10.05;;
49440;SDS011;35317;51.978;6.296;2024-02-21T01:35:58;34.75;;;10.40;;
49440;SDS011;35317;51.978;6.296;2024-02-21T01:40:59;28.65;;;10.50;;
49440;SDS011;35317;51.978;6.296;2024-02-21T01:45:59;24.15;;;9.98;;
49440;SDS011;35317;51.978;6.296;2024-02-21T01:51:00;26.23;;;10.05;;
49440;SDS011;35317;51.978;6.296;2024-02-21T01:56:05;22.83;;;9.55;;
49440;SDS011;35317;51.978;6.296;2024-02-21T02:01:07;28.70;;;9.30;;
49440;SDS011;35317;51.978;6.296;2024-02-21T02:06:08;30.63;;;10.60;;
49440;SDS011;35317;51.978;6.296;2024-02-21T02:11:09;26.65;;;10.02;;
49440;SDS011;35317;51.978;6.296;2024-02-21T02:16:10;22.95;;;8.65;;
49440;SDS011;35317;51.978;6.296;2024-02-21T02:21:13;21.80;;;8.77;;
49440;SDS011;35317;51.978;6.296;2024-02-21T02:26:29;24.80;;;8.43;;
49440;SDS011;35317;51.978;6.296;2024-02-21T02:31:30;22.38;;;10.32;;
49440;SDS011;35317;51.978;6.296;2024-02-21T02:36:32;21.85;;;8.65;;
49440;SDS011;35317;51.978;6.296;2024-02-21T02:41:36;20.30;;;9.35;;
49440;SDS011;35317;51.978;6.296;2024-02-21T02:46:39;31.13;;;10.10;;
49440;SDS011;35317;51.978;6.296;2024-02-21T02:51:41;31.25;;;9.55;;
49440;SDS011;35317;51.978;6.296;2024-02-21T02:56:46;21.08;;;7.90;;
49440;SDS011;35317;51.978;6.296;2024-02-21T03:01:46;19.67;;;9.57;;
49440;SDS011;35317;51.978;6.296;2024-02-21T03:06:47;23.02;;;8.60;;
49440;SDS011;35317;51.978;6.296;2024-02-21T03:11:48;16.83;;;8.95;;
49440;SDS011;35317;51.978;6.296;2024-02-21T03:16:51;20.40;;;8.20;;
49440;SDS011;35317;51.978;6.296;2024-02-21T03:21:52;18.85;;;8.13;;
49440;SDS011;35317;51.978;6.296;2024-02-21T03:26:53;19.10;;;8.52;;
49440;SDS011;35317;51.978;6.296;2024-02-21T03:31:53;20.73;;;9.88;;
49440;SDS011;35317;51.978;6.296;2024-02-21T03:36:55;18.20;;;8.10;;
49440;SDS011;35317;51.978;6.296;2024-02-21T03:41:56;22.08;;;8.48;;
49440;SDS011;35317;51.978;6.296;2024-02-21T03:46:58;28.08;;;7.35;;
49440;SDS011;35317;51.978;6.296;2024-02-21T03:52:00;18.02;;;7.38;;
49440;SDS011;35317;51.978;6.296;2024-02-21T03:57:00;19.27;;;7.88;;
49440;SDS011;35317;51.978;6.296;2024-02-21T04:02:02;17.75;;;7.03;;
49440;SDS011;35317;51.978;6.296;2024-02-21T04:07:08;18.98;;;7.85;;
49440;SDS011;35317;51.978;6.296;2024-02-21T04:12:09;23.73;;;7.45;;
49440;SDS011;35317;51.978;6.296;2024-02-21T04:17:10;22.42;;;7.60;;
49440;SDS011;35317;51.978;6.296;2024-02-21T04:22:10;17.48;;;7.22;;
49440;SDS011;35317;51.978;6.296;2024-02-21T04:27:11;19.58;;;6.43;;
49440;SDS011;35317;51.978;6.296;2024-02-21T04:32:12;17.60;;;6.63;;
49440;SDS011;35317;51.978;6.296;2024-02-21T04:37:13;19.20;;;6.07;;
49440;SDS011;35317;51.978;6.296;2024-02-21T04:42:13;17.40;;;6.28;;
49440;SDS011;35317;51.978;6.296;2024-02-21T04:47:15;14.90;;;6.50;;
49440;SDS011;35317;51.978;6.296;2024-02-21T04:52:16;16.83;;;6.75;;
49440;SDS011;35317;51.978;6.296;2024-02-21T04:57:16;19.30;;;6.35;;
49440;SDS011;35317;51.978;6.296;2024-02-21T05:02:17;16.27;;;6.28;;
49440;SDS011;35317;51.978;6.296;2024-02-21T05:07:20;13.65;;;5.88;;
49440;SDS011;35317;51.978;6.296;2024-02-21T05:12:20;12.80;;;5.75;;
49440;SDS011;35317;51.978;6.296;2024-02-21T05:17:21;16.25;;;6.25;;
49440;SDS011;35317;51.978;6.296;2024-02-21T05:22:22;17.20;;;6.15;;
49440;SDS011;35317;51.978;6.296;2024-02-21T05:27:23;10.85;;;5.88;;
49440;SDS011;35317;51.978;6.296;2024-02-21T05:32:23;13.93;;;6.03;;
49440;SDS011;35317;51.978;6.296;2024-02-21T05:37:26;17.58;;;5.97;;
49440;SDS011;35317;51.978;6.296;2024-02-21T05:42:27;15.90;;;5.55;;
49440;SDS011;35317;51.978;6.296;2024-02-21T05:47:27;16.77;;;5.80;;
49440;SDS011;35317;51.978;6.296;2024-02-21T05:52:29;12.35;;;5.45;;
49440;SDS011;35317;51.978;6.296;2024-02-21T05:57:29;11.30;;;5.60;;
49440;SDS011;35317;51.978;6.296;2024-02-21T06:02:30;14.30;;;5.90;;
49440;SDS011;35317;51.978;6.296;2024-02-21T06:07:31;13.80;;;5.93;;
49440;SDS011;35317;51.978;6.296;2024-02-21T06:12:32;12.45;;;5.32;;
49440;SDS011;35317;51.978;6.296;2024-02-21T06:17:33;10.80;;;4.97;;
49440;SDS011;35317;51.978;6.296;2024-02-21T06:22:33;12.75;;;4.55;;
49440;SDS011;35317;51.978;6.296;2024-02-21T06:27:34;14.68;;;6.15;;
49440;SDS011;35317;51.978;6.296;2024-02-21T06:32:35;9.43;;;4.70;;
49440;SDS011;35317;51.978;6.296;2024-02-21T06:37:36;13.98;;;5.47;;
49440;SDS011;35317;51.978;6.296;2024-02-21T06:42:38;15.25;;;6.43;;
49440;SDS011;35317;51.978;6.296;2024-02-21T06:47:38;17.92;;;6.40;;
49440;SDS011;35317;51.978;6.296;2024-02-21T06:52:39;19.23;;;6.88;;
49440;SDS011;35317;51.978;6.296;2024-02-21T06:57:40;21.90;;;7.10;;
49440;SDS011;35317;51.978;6.296;2024-02-21T07:02:41;19.40;;;6.70;;
49440;SDS011;35317;51.978;6.296;2024-02-21T07:07:42;24.00;;;8.20;;
49440;SDS011;35317;51.978;6.296;2024-02-21T07:12:43;21.80;;;7.43;;
49440;SDS011;35317;51.978;6.296;2024-02-21T07:17:44;19.63;;;8.07;;
49440;SDS011;35317;51.978;6.296;2024-02-21T07:22:45;17.63;;;6.40;;
49440;SDS011;35317;51.978;6.296;2024-02-21T07:27:46;17.63;;;6.20;;
49440;SDS011;35317;51.978;6.296;2024-02-21T07:32:49;20.23;;;6.53;;
49440;SDS011;35317;51.978;6.296;2024-02-21T07:37:50;14.85;;;6.53;;
49440;SDS011;35317;51.978;6.296;2024-02-21T07:42:51;14.55;;;6.40;;
49440;SDS011;35317;51.978;6.296;2024-02-21T07:47:52;17.77;;;6.95;;
49440;SDS011;35317;51.978;6.296;2024-02-21T07:52:53;15.32;;;6.13;;
49440;SDS011;35317;51.978;6.296;2024-02-21T07:57:53;14.98;;;6.32;;
49440;SDS011;35317;51.978;6.296;2024-02-21T08:02:54;18.27;;;6.22;;
49440;SDS011;35317;51.978;6.296;2024-02-21T08:07:55;23.90;;;6.82;;
49440;SDS011;35317;51.978;6.296;2024-02-21T08:12:56;19.73;;;6.32;;
49440;SDS011;35317;51.978;6.296;2024-02-21T08:17:57;14.20;;;6.38;;
49440;SDS011;35317;51.978;6.296;2024-02-21T08:23:01;16.98;;;6.65;;
49440;SDS011;35317;51.978;6.296;2024-02-21T08:28:02;18.85;;;7.00;;
49440;SDS011;35317;51.978;6.296;2024-02-21T08:33:03;12.57;;;6.20;;
49440;SDS011;35317;51.978;6.296;2024-02-21T08:38:04;16.02;;;6.97;;
49440;SDS011;35317;51.978;6.296;2024-02-21T08:43:05;18.73;;;7.30;;
49440;SDS011;35317;51.978;6.296;2024-02-21T08:48:06;18.85;;;6.90;;
49440;SDS011;35317;51.978;6.296;2024-02-21T08:53:08;16.00;;;6.93;;
49440;SDS011;35317;51.978;6.296;2024-02-21T08:58:09;15.45;;;6.38;;
49440;SDS011;35317;51.978;6.296;2024-02-21T09:03:09;16.00;;;6.03;;
49440;SDS011;35317;51.978;6.296;2024-02-21T09:08:10;13.73;;;6.03;;
49440;SDS011;35317;51.978;6.296;2024-02-21T09:13:11;13.07;;;5.75;;
49440;SDS011;35317;51.978;6.296;2024-02-21T09:18:12;13.02;;;5.90;;
49440;SDS011;35317;51.978;6.296;2024-02-21T09:23:12;14.65;;;5.97;;
49440;SDS011;35317;51.978;6.296;2024-02-21T09:28:13;12.25;;;5.47;;
49440;SDS011;35317;51.978;6.296;2024-02-21T09:33:14;13.10;;;5.22;;
49440;SDS011;35317;51.978;6.296;2024-02-21T09:38:15;14.35;;;5.60;;
49440;SDS011;35317;51.978;6.296;2024-02-21T09:43:16;12.98;;;5.03;;
49440;SDS011;35317;51.978;6.296;2024-02-21T09:48:56;13.85;;;5.90;;
49440;SDS011;35317;51.978;6.296;2024-02-21T09:54:14;10.55;;;4.78;;
49440;SDS011;35317;51.978;6.296;2024-02-21T09:59:15;13.02;;;5.72;;
49440;SDS011;35317;51.978;6.296;2024-02-21T10:04:17;8.13;;;4.65;;
49440;SDS011;35317;51.978;6.296;2024-02-21T10:09:22;12.52;;;4.85;;
49440;SDS011;35317;51.978;6.296;2024-02-21T10:14:27;9.95;;;4.25;;
49440;SDS011;35317;51.978;6.296;2024-02-21T10:19:28;9.77;;;3.88;;
49440;SDS011;35317;51.978;6.296;2024-02-21T10:24:29;10.48;;;4.25;;
49440;SDS011;35317;51.978;6.296;2024-02-21T10:29:32;9.70;;;4.22;;
49440;SDS011;35317;51.978;6.296;2024-02-21T10:34:37;10.55;;;4.50;;
49440;SDS011;35317;51.978;6.296;2024-02-21T10:39:41;14.60;;;4.28;;
49440;SDS011;35317;51.978;6.296;2024-02-21T10:44:44;8.77;;;4.00;;
49440;SDS011;35317;51.978;6.296;2024-02-21T10:49:56;6.22;;;3.47;;
49440;SDS011;35317;51.978;6.296;2024-02-21T10:55:04;6.40;;;3.20;;
49440;SDS011;35317;51.978;6.296;2024-02-21T11:00:11;8.75;;;3.90;;
49440;SDS011;35317;51.978;6.296;2024-02-21T11:05:15;14.52;;;4.25;;
49440;SDS011;35317;51.978;6.296;2024-02-21T11:10:20;8.60;;;4.05;;
49440;SDS011;35317;51.978;6.296;2024-02-21T11:15:26;10.15;;;4.35;;
49440;SDS011;35317;51.978;6.296;2024-02-21T11:20:34;11.20;;;4.40;;
49440;SDS011;35317;51.978;6.296;2024-02-21T11:25:36;10.85;;;4.15;;
49440;SDS011;35317;51.978;6.296;2024-02-21T11:30:37;9.70;;;4.28;;
49440;SDS011;35317;51.978;6.296;2024-02-21T11:35:43;10.60;;;4.00;;
49440;SDS011;35317;51.978;6.296;2024-02-21T11:40:45;8.35;;;4.18;;
49440;SDS011;35317;51.978;6.296;2024-02-21T11:45:47;10.35;;;4.13;;
49440;SDS011;35317;51.978;6.296;2024-02-21T11:50:57;12.00;;;4.13;;
49440;SDS011;35317;51.978;6.296;2024-02-21T11:55:58;11.13;;;3.95;;
49440;SDS011;35317;51.978;6.296;2024-02-21T12:00:59;11.15;;;4.70;;
49440;SDS011;35317;51.978;6.296;2024-02-21T12:06:02;10.30;;;4.40;;
49440;SDS011;35317;51.978;6.296;2024-02-21T12:11:04;8.60;;;3.80;;
49440;SDS011;35317;51.978;6.296;2024-02-21T12:16:22;8.35;;;3.83;;
49440;SDS011;35317;51.978;6.296;2024-02-21T12:21:24;12.23;;;4.30;;
49440;SDS011;35317;51.978;6.296;2024-02-21T12:26:30;9.82;;;4.25;;
49440;SDS011;35317;51.978;6.296;2024-02-21T12:31:31;6.80;;;3.92;;
49440;SDS011;35317;51.978;6.296;2024-02-21T12:36:32;11.27;;;3.88;;
49440;SDS011;35317;51.978;6.296;2024-02-21T12:41:34;9.48;;;4.03;;
49440;SDS011;35317;51.978;6.296;2024-02-21T12:46:38;8.20;;;3.65;;
49440;SDS011;35317;51.978;6.296;2024-02-21T12:51:40;11.60;;;4.47;;
49440;SDS011;35317;51.978;6.296;2024-02-21T12:56:42;12.45;;;3.97;;
49440;SDS011;35317;51.978;6.296;2024-02-21T13:01:43;8.50;;;4.00;;
49440;SDS011;35317;51.978;6.296;2024-02-21T13:06:43;8.55;;;3.60;;
49440;SDS011;35317;51.978;6.296;2024-02-21T13:11:45;10.02;;;3.78;;
49440;SDS011;35317;51.978;6.296;2024-02-21T13:16:46;9.30;;;3.30;;
49440;SDS011;35317;51.978;6.296;2024-02-21T13:21:47;9.77;;;3.35;;
49440;SDS011;35317;51.978;6.296;2024-02-21T13:26:48;8.02;;;3.42;;
49440;SDS011;35317;51.978;6.296;2024-02-21T13:31:48;11.38;;;3.97;;
49440;SDS011;35317;51.978;6.296;2024-02-21T13:36:50;14.52;;;4.13;;
49440;SDS011;35317;51.978;6.296;2024-02-21T13:41:50;9.88;;;3.90;;
49440;SDS011;35317;51.978;6.296;2024-02-21T13:46:51;10.50;;;4.15;;
49440;SDS011;35317;51.978;6.296;2024-02-21T13:51:52;8.38;;;3.80;;
49440;SDS011;35317;51.978;6.296;2024-02-21T13:56:54;13.77;;;4.55;;
49440;SDS011;35317;51.978;6.296;2024-02-21T14:01:56;11.35;;;4.00;;
49440;SDS011;35317;51.978;6.296;2024-02-21T14:06:58;11.05;;;3.42;;
49440;SDS011;35317;51.978;6.296;2024-02-21T14:11:59;9.27;;;3.60;;
49440;SDS011;35317;51.978;6.296;2024-02-21T14:17:00;6.70;;;3.60;;
49440;SDS011;35317;51.978;6.296;2024-02-21T14:22:01;10.88;;;4.18;;
49440;SDS011;35317;51.978;6.296;2024-02-21T14:27:02;9.55;;;3.75;;
49440;SDS011;35317;51.978;6.296;2024-02-21T14:32:04;7.13;;;3.38;;
49440;SDS011;35317;51.978;6.296;2024-02-21T14:37:06;9.52;;;3.80;;
49440;SDS011;35317;51.978;6.296;2024-02-21T14:42:06;11.50;;;4.15;;
49440;SDS011;35317;51.978;6.296;2024-02-21T14:47:10;8.02;;;3.20;;
49440;SDS011;35317;51.978;6.296;2024-02-21T14:52:11;9.77;;;4.07;;
49440;SDS011;35317;51.978;6.296;2024-02-21T14:57:12;11.52;;;3.40;;
49440;SDS011;35317;51.978;6.296;2024-02-21T15:02:13;8.25;;;3.08;;
49440;SDS011;35317;51.978;6.296;2024-02-21T15:07:13;9.27;;;3.55;;
49440;SDS011;35317;51.978;6.296;2024-02-21T15:12:14;11.60;;;2.85;;
49440;SDS011;35317;51.978;6.296;2024-02-21T15:17:15;5.20;;;2.40;;
49440;SDS011;35317;51.978;6.296;2024-02-21T15:22:16;9.02;;;2.72;;
49440;SDS011;35317;51.978;6.296;2024-02-21T15:27:18;4.65;;;2.35;;
49440;SDS011;35317;51.978;6.296;2024-02-21T15:32:18;6.68;;;2.38;;
49440;SDS011;35317;51.978;6.296;2024-02-21T15:37:20;6.40;;;2.33;;
49440;SDS011;35317;51.978;6.296;2024-02-21T15:42:20;9.80;;;2.90;;
49440;SDS011;35317;51.978;6.296;2024-02-21T15:47:21;7.43;;;2.75;;
49440;SDS011;35317;51.978;6.296;2024-02-21T15:52:23;12.70;;;3.92;;
49440;SDS011;35317;51.978;6.296;2024-02-21T15:57:24;8.65;;;3.95;;
49440;SDS011;35317;51.978;6.296;2024-02-21T16:02:25;8.55;;;3.42;;
49440;SDS011;35317;51.978;6.296;2024-02-21T16:07:26;11.70;;;4.00;;
49440;SDS011;35317;51.978;6.296;2024-02-21T16:12:26;7.00;;;3.72;;
49440;SDS011;35317;51.978;6.296;2024-02-21T16:17:27;10.65;;;3.95;;
49440;SDS011;35317;51.978;6.296;2024-02-21T16:22:28;8.23;;;3.30;;
49440;SDS011;35317;51.978;6.296;2024-02-21T16:27:29;8.50;;;3.17;;
49440;SDS011;35317;51.978;6.296;2024-02-21T16:32:30;6.40;;;2.47;;
49440;SDS011;35317;51.978;6.296;2024-02-21T16:37:31;10.05;;;3.40;;
49440;SDS011;35317;51.978;6.296;2024-02-21T16:42:32;4.88;;;2.28;;
49440;SDS011;35317;51.978;6.296;2024-02-21T16:47:33;8.23;;;2.55;;
49440;SDS011;35317;51.978;6.296;2024-02-21T16:52:35;8.88;;;3.35;;
49440;SDS011;35317;51.978;6.296;2024-02-21T16:57:35;6.40;;;2.95;;
49440;SDS011;35317;51.978;6.296;2024-02-21T17:02:39;5.78;;;2.70;;
49440;SDS011;35317;51.978;6.296;2024-02-21T17:07:41;10.93;;;4.03;;
49440;SDS011;35317;51.978;6.296;2024-02-21T17:12:41;13.68;;;4.82;;
49440;SDS011;35317;51.978;6.296;2024-02-21T17:17:42;9.70;;;3.72;;
49440;SDS011;35317;51.978;6.296;2024-02-21T17:22:43;10.75;;;4.35;;
49440;SDS011;35317;51.978;6.296;2024-02-21T17:27:44;9.07;;;3.55;;
49440;SDS011;35317;51.978;6.296;2024-02-21T17:32:45;8.55;;;3.17;;
49440;SDS011;35317;51.978;6.296;2024-02-21T17:37:45;8.25;;;3.00;;
49440;SDS011;35317;51.978;6.296;2024-02-21T17:42:46;6.15;;;2.88;;
49440;SDS011;35317;51.978;6.296;2024-02-21T17:47:47;5.28;;;3.17;;
49440;SDS011;35317;51.978;6.296;2024-02-21T17:52:48;7.65;;;3.38;;
49440;SDS011;35317;51.978;6.296;2024-02-21T17:57:49;7.90;;;3.42;;
49440;SDS011;35317;51.978;6.296;2024-02-21T18:02:49;7.88;;;3.45;;
49440;SDS011;35317;51.978;6.296;2024-02-21T18:07:50;9.98;;;3.60;;
49440;SDS011;35317;51.978;6.296;2024-02-21T18:12:51;6.95;;;3.65;;
49440;SDS011;35317;51.978;6.296;2024-02-21T18:17:52;12.27;;;3.83;;
49440;SDS011;35317;51.978;6.296;2024-02-21T18:22:53;10.35;;;3.88;;
49440;SDS011;35317;51.978;6.296;2024-02-21T18:27:53;7.90;;;3.50;;
49440;SDS011;35317;51.978;6.296;2024-02-21T18:32:55;9.75;;;3.55;;
49440;SDS011;35317;51.978;6.296;2024-02-21T18:37:57;8.15;;;4.10;;
49440;SDS011;35317;51.978;6.296;2024-02-21T18:42:58;5.63;;;3.53;;
49440;SDS011;35317;51.978;6.296;2024-02-21T18:47:59;9.57;;;2.83;;
49440;SDS011;35317;51.978;6.296;2024-02-21T18:53:00;8.13;;;3.53;;
49440;SDS011;35317;51.978;6.296;2024-02-21T18:58:01;6.25;;;3.50;;
49440;SDS011;35317;51.978;6.296;2024-02-21T19:03:02;6.68;;;3.42;;
49440;SDS011;35317;51.978;6.296;2024-02-21T19:08:03;6.35;;;3.33;;
49440;SDS011;35317;51.978;6.296;2024-02-21T19:13:04;10.68;;;3.58;;
49440;SDS011;35317;51.978;6.296;2024-02-21T19:18:05;7.75;;;3.80;;
49440;SDS011;35317;51.978;6.296;2024-02-21T19:23:07;7.18;;;3.47;;
49440;SDS011;35317;51.978;6.296;2024-02-21T19:28:09;8.10;;;4.00;;
49440;SDS011;35317;51.978;6.296;2024-02-21T19:33:13;10.10;;;4.05;;
49440;SDS011;35317;51.978;6.296;2024-02-21T19:38:13;10.02;;;4.10;;
49440;SDS011;35317;51.978;6.296;2024-02-21T19:43:15;5.95;;;3.85;;
49440;SDS011;35317;51.978;6.296;2024-02-21T19:48:15;8.32;;;3.75;;
49440;SDS011;35317;51.978;6.296;2024-02-21T19:53:18;10.43;;;3.90;;
49440;SDS011;35317;51.978;6.296;2024-02-21T19:58:19;10.02;;;4.43;;
49440;SDS011;35317;51.978;6.296;2024-02-21T20:03:20;8.18;;;4.35;;
49440;SDS011;35317;51.978;6.296;2024-02-21T20:08:20;10.65;;;3.95;;
49440;SDS011;35317;51.978;6.296;2024-02-21T20:13:22;7.32;;;4.10;;
49440;SDS011;35317;51.978;6.296;2024-02-21T20:18:22;8.82;;;4.30;;
49440;SDS011;35317;51.978;6.296;2024-02-21T20:23:23;9.40;;;4.88;;
49440;SDS011;35317;51.978;6.296;2024-02-21T20:28:24;13.20;;;4.95;;
49440;SDS011;35317;51.978;6.296;2024-02-21T20:33:25;8.75;;;4.88;;
49440;SDS011;35317;51.978;6.296;2024-02-21T20:38:26;7.63;;;4.45;;
49440;SDS011;35317;51.978;6.296;2024-02-21T20:43:26;6.88;;;4.60;;
49440;SDS011;35317;51.978;6.296;2024-02-21T20:48:27;10.18;;;4.75;;
49440;SDS011;35317;51.978;6.296;2024-02-21T20:53:31;10.37;;;4.57;;
49440;SDS011;35317;51.978;6.296;2024-02-21T20:58:31;6.80;;;4.32;;
49440;SDS011;35317;51.978;6.296;2024-02-21T21:03:32;9.32;;;4.35;;
49440;SDS011;35317;51.978;6.296;2024-02-21T21:08:33;7.22;;;4.20;;
49440;SDS011;35317;51.978;6.296;2024-02-21T21:13:34;9.95;;;4.32;;
49440;SDS011;35317;51.978;6.296;2024-02-21T21:18:35;7.57;;;4.28;;
49440;SDS011;35317;51.978;6.296;2024-02-21T21:23:36;8.35;;;4.43;;
49440;SDS011;35317;51.978;6.296;2024-02-21T21:28:37;9.10;;;4.15;;
49440;SDS011;35317;51.978;6.296;2024-02-21T21:33:38;6.80;;;4.65;;
49440;SDS011;35317;51.978;6.296;2024-02-21T21:38:39;7.88;;;4.43;;
49440;SDS011;35317;51.978;6.296;2024-02-21T21:43:40;8.88;;;4.38;;
49440;SDS011;35317;51.978;6.296;2024-02-21T21:48:41;8.75;;;4.43;;
49440;SDS011;35317;51.978;6.296;2024-02-21T21:53:43;6.78;;;3.90;;
49440;SDS011;35317;51.978;6.296;2024-02-21T21:58:45;6.05;;;4.03;;
49440;SDS011;35317;51.978;6.296;2024-02-21T22:03:46;5.15;;;3.50;;
49440;SDS011;35317;51.978;6.296;2024-02-21T22:08:47;5.10;;;3.45;;
49440;SDS011;35317;51.978;6.296;2024-02-21T22:13:48;5.55;;;3.70;;
49440;SDS011;35317;51.978;6.296;2024-02-21T22:18:49;3.88;;;2.85;;
49440;SDS011;35317;51.978;6.296;2024-02-21T22:23:50;5.65;;;3.42;;
49440;SDS011;35317;51.978;6.296;2024-02-21T22:28:51;3.88;;;2.92;;
49440;SDS011;35317;51.978;6.296;2024-02-21T22:33:52;4.47;;;3.33;;
49440;SDS011;35317;51.978;6.296;2024-02-21T22:38:53;5.18;;;3.15;;
49440;SDS011;35317;51.978;6.296;2024-02-21T22:43:54;4.82;;;3.13;;
49440;SDS011;35317;51.978;6.296;2024-02-21T22:48:55;4.57;;;3.15;;
49440;SDS011;35317;51.978;6.296;2024-02-21T22:53:55;3.72;;;2.72;;
49440;SDS011;35317;51.978;6.296;2024-02-21T22:58:57;3.53;;;2.83;;
49440;SDS011;35317;51.978;6.296;2024-02-21T23:03:58;5.22;;;2.92;;
49440;SDS011;35317;51.978;6.296;2024-02-21T23:08:58;3.63;;;2.55;;
49440;SDS011;35317;51.978;6.296;2024-02-21T23:14:00;3.97;;;2.70;;
49440;SDS011;35317;51.978;6.296;2024-02-21T23:19:01;3.38;;;2.67;;
49440;SDS011;35317;51.978;6.296;2024-02-21T23:24:02;3.45;;;2.42;;
49440;SDS011;35317;51.978;6.296;2024-02-21T23:29:03;3.72;;;2.70;;
49440;SDS011;35317;51.978;6.296;2024-02-21T23:34:04;4.03;;;2.65;;
49440;SDS011;35317;51.978;6.296;2024-02-21T23:39:04;3.42;;;3.03;;
49440;SDS011;35317;51.978;6.296;2024-02-21T23:44:06;3.58;;;2.92;;
49440;SDS011;35317;51.978;6.296;2024-02-21T23:49:07;3.70;;;2.80;;
49440;SDS011;35317;51.978;6.296;2024-02-21T23:54:07;3.58;;;2.80;;
49440;SDS011;35317;51.978;6.296;2024-02-21T23:59:08;3.03;;;2.50;;
